createdAt,value
2022-09-06T00:02:34.100Z,16.84
2022-09-06T00:05:19.389Z,16.76
2022-09-06T00:08:06.320Z,16.77
2022-09-06T00:11:01.071Z,16.74
2022-09-06T00:13:47.555Z,16.73
2022-09-06T00:16:33.086Z,16.69
2022-09-06T00:19:18.043Z,16.64
2022-09-06T00:22:03.598Z,16.65
2022-09-06T00:24:48.760Z,16.61
2022-09-06T00:27:34.849Z,16.61
2022-09-06T00:30:20.491Z,16.59
2022-09-06T00:33:05.855Z,16.55
2022-09-06T00:40:35.783Z,16.45
2022-09-06T00:43:21.328Z,16.38
2022-09-06T00:46:08.624Z,16.38
2022-09-06T00:49:00.711Z,16.34
2022-09-06T00:51:46.373Z,16.34
2022-09-06T00:54:36.917Z,16.32
2022-09-06T00:57:27.025Z,16.27
2022-09-06T01:00:18.418Z,16.25
2022-09-06T01:07:07.885Z,16.19
2022-09-06T01:10:42.624Z,16.16
2022-09-06T01:13:59.652Z,16.16
2022-09-06T01:16:56.442Z,16.12
2022-09-06T01:20:10.838Z,16.09
2022-09-06T01:23:58.102Z,16.05
2022-09-06T01:26:57.671Z,16.02
2022-09-06T01:29:52.835Z,15.99
2022-09-06T01:33:01.200Z,15.94
2022-09-06T01:35:51.896Z,15.90
2022-09-06T01:38:37.472Z,15.89
2022-09-06T01:41:22.761Z,15.87
2022-09-06T01:44:07.903Z,15.87
2022-09-06T01:47:08.133Z,15.86
2022-09-06T01:50:44.146Z,15.80
2022-09-06T01:53:56.715Z,15.78
2022-09-06T01:57:08.794Z,15.77
2022-09-06T02:00:10.930Z,15.74
2022-09-06T02:03:19.312Z,15.77
2022-09-06T02:06:13.422Z,15.76
2022-09-06T02:09:08.938Z,15.71
2022-09-06T02:11:58.485Z,15.72
2022-09-06T02:14:52.045Z,15.71
2022-09-06T02:17:42.230Z,15.71
2022-09-06T02:20:32.159Z,15.66
2022-09-06T02:23:17.745Z,15.66
2022-09-06T02:26:32.781Z,15.63
2022-09-06T02:29:18.615Z,15.56
2022-09-06T02:32:26.287Z,15.54
2022-09-06T02:35:16.621Z,15.52
2022-09-06T02:38:02.265Z,15.48
2022-09-06T02:40:50.066Z,15.44
2022-09-06T02:43:35.749Z,15.44
2022-09-06T02:46:21.211Z,15.43
2022-09-06T02:49:06.836Z,15.40
2022-09-06T02:51:52.019Z,15.36
2022-09-06T02:54:37.464Z,15.37
2022-09-06T02:57:23.170Z,15.38
2022-09-06T03:00:08.912Z,15.36
2022-09-06T03:02:54.495Z,15.32
2022-09-06T03:05:39.977Z,15.33
2022-09-06T03:08:26.454Z,15.31
2022-09-06T03:11:11.838Z,15.28
2022-09-06T03:13:57.143Z,15.29
2022-09-06T03:16:42.806Z,15.27
2022-09-06T03:19:28.354Z,15.24
2022-09-06T03:22:13.796Z,15.24
2022-09-06T03:24:59.020Z,15.23
2022-09-06T03:27:44.323Z,15.20
2022-09-06T03:30:29.934Z,15.15
2022-09-06T03:33:15.692Z,15.12
2022-09-06T03:36:03.054Z,15.09
2022-09-06T03:38:48.509Z,15.07
2022-09-06T03:41:33.865Z,15.04
2022-09-06T03:44:19.178Z,15.04
2022-09-06T03:47:04.666Z,15.01
2022-09-06T03:49:49.750Z,14.97
2022-09-06T03:52:35.028Z,14.95
2022-09-06T03:55:20.179Z,14.94
2022-09-06T03:58:05.665Z,14.93
2022-09-06T04:01:04.799Z,14.91
2022-09-06T04:03:51.529Z,14.93
2022-09-06T04:06:36.838Z,14.90
2022-09-06T04:09:22.073Z,14.88
2022-09-06T04:12:07.554Z,14.86
2022-09-06T04:14:52.961Z,14.84
2022-09-06T04:17:38.610Z,14.82
2022-09-06T04:20:23.836Z,14.78
2022-09-06T04:23:09.297Z,14.73
2022-09-06T04:25:56.806Z,14.71
2022-09-06T04:28:42.190Z,14.67
2022-09-06T04:31:27.590Z,14.69
2022-09-06T04:34:12.719Z,14.66
2022-09-06T04:36:58.402Z,14.63
2022-09-06T04:39:44.253Z,14.61
2022-09-06T04:42:29.747Z,14.59
2022-09-06T04:45:15.142Z,14.62
2022-09-06T04:48:00.410Z,14.59
2022-09-06T04:50:46.086Z,14.55
2022-09-06T04:53:31.162Z,14.55
2022-09-06T04:56:21.944Z,14.53
2022-09-06T04:59:07.444Z,14.51
2022-09-06T05:01:52.892Z,14.51
2022-09-06T05:04:37.957Z,14.59
2022-09-06T05:07:23.274Z,14.60
2022-09-06T05:10:08.777Z,14.64
2022-09-06T05:12:54.840Z,14.69
2022-09-06T05:15:40.516Z,14.70
2022-09-06T05:18:25.936Z,14.73
2022-09-06T05:21:11.331Z,14.75
2022-09-06T05:23:58.643Z,14.77
2022-09-06T05:26:44.451Z,14.80
2022-09-06T05:29:30.686Z,14.83
2022-09-06T05:32:16.010Z,14.82
2022-09-06T05:35:01.218Z,14.83
2022-09-06T05:37:46.373Z,14.87
2022-09-06T05:40:31.948Z,14.94
2022-09-06T05:43:17.217Z,14.99
2022-09-06T05:46:02.578Z,15.05
2022-09-06T05:49:07.803Z,15.17
2022-09-06T05:51:53.030Z,15.27
2022-09-06T05:54:38.718Z,15.34
2022-09-06T05:57:23.911Z,15.44
2022-09-06T06:00:12.032Z,15.52
2022-09-06T06:02:57.530Z,15.51
2022-09-06T06:05:47.576Z,15.33
2022-09-06T06:08:33.153Z,15.30
2022-09-06T06:11:19.079Z,15.30
2022-09-06T06:14:04.966Z,15.23
2022-09-06T06:16:52.824Z,15.27
2022-09-06T06:19:38.394Z,15.36
2022-09-06T06:22:26.923Z,15.47
2022-09-06T06:25:12.701Z,15.57
2022-09-06T06:27:58.140Z,15.68
2022-09-06T06:30:49.963Z,15.68
2022-09-06T06:33:36.298Z,15.73
2022-09-06T06:36:24.365Z,15.85
2022-09-06T06:39:09.817Z,16.05
2022-09-06T06:41:55.592Z,16.07
2022-09-06T06:45:00.228Z,16.17
2022-09-06T06:47:50.040Z,16.15
2022-09-06T06:50:35.280Z,16.02
2022-09-06T06:53:20.432Z,16.08
2022-09-06T06:56:27.637Z,16.26
2022-09-06T06:59:13.223Z,16.26
2022-09-06T07:01:58.687Z,16.35
2022-09-06T07:04:44.227Z,16.40
2022-09-06T07:10:35.622Z,16.27
2022-09-06T07:13:21.167Z,16.38
2022-09-06T07:16:08.882Z,16.68
2022-09-06T07:18:54.583Z,16.87
2022-09-06T07:21:39.820Z,16.94
2022-09-06T07:24:25.585Z,16.93
2022-09-06T07:30:16.454Z,16.88
2022-09-06T07:33:01.702Z,16.92
2022-09-06T07:36:01.519Z,17.17
2022-09-06T07:38:51.387Z,17.34
2022-09-06T07:41:36.947Z,17.50
2022-09-06T07:44:22.053Z,17.54
2022-09-06T07:53:30.800Z,17.35
2022-09-06T07:56:16.777Z,17.53
2022-09-06T07:59:02.109Z,17.47
2022-09-06T08:01:48.209Z,17.57
2022-09-06T08:04:33.470Z,17.62
2022-09-06T08:10:24.126Z,17.69
2022-09-06T08:13:09.251Z,17.74
2022-09-06T08:16:00.297Z,17.70
2022-09-06T08:18:56.564Z,17.63
2022-09-06T08:21:41.796Z,17.61
2022-09-06T08:24:27.364Z,17.65
2022-09-06T08:27:12.672Z,17.70
2022-09-06T08:29:57.728Z,17.71
2022-09-06T08:32:43.322Z,17.83
2022-09-06T08:35:28.847Z,17.98
2022-09-06T08:38:14.328Z,18.09
2022-09-06T08:41:10.293Z,18.24
2022-09-06T08:47:10.613Z,18.46
2022-09-06T08:50:02.656Z,18.42
2022-09-06T08:53:18.461Z,18.38
2022-09-06T08:56:17.023Z,18.46
2022-09-06T08:59:06.815Z,18.56
2022-09-06T09:02:11.275Z,18.54
2022-09-06T09:05:01.438Z,18.56
2022-09-06T09:08:00.189Z,18.63
2022-09-06T09:10:49.865Z,18.63
2022-09-06T09:13:47.253Z,18.69
2022-09-06T09:16:33.023Z,18.96
2022-09-06T09:19:18.654Z,19.00
2022-09-06T09:22:04.385Z,18.99
2022-09-06T09:24:51.808Z,19.23
2022-09-06T09:27:37.562Z,19.44
2022-09-06T09:33:35.647Z,19.42
2022-09-06T09:36:21.520Z,19.65
2022-09-06T09:39:11.643Z,19.49
2022-09-06T09:41:57.135Z,19.53
2022-09-06T09:44:44.260Z,19.60
2022-09-06T09:47:31.721Z,19.51
2022-09-06T09:50:27.386Z,19.51
2022-09-06T09:53:15.101Z,19.71
2022-09-06T09:56:00.748Z,19.80
2022-09-06T09:58:46.343Z,20.06
2022-09-06T10:01:35.717Z,20.27
2022-09-06T10:04:46.870Z,20.39
2022-09-06T10:07:34.321Z,20.33
2022-09-06T10:10:37.053Z,20.21
2022-09-06T10:13:26.591Z,20.10
2022-09-06T10:16:13.172Z,20.18
2022-09-06T10:18:59.028Z,20.28
2022-09-06T10:21:45.307Z,20.41
2022-09-06T10:25:08.848Z,20.44
2022-09-06T10:28:11.456Z,20.37
2022-09-06T10:31:09.455Z,20.40
2022-09-06T10:34:19.789Z,20.41
2022-09-06T10:37:13.326Z,20.41
2022-09-06T10:40:10.624Z,20.50
2022-09-06T10:42:59.261Z,20.72
2022-09-06T10:45:58.271Z,20.62
2022-09-06T10:48:48.149Z,20.61
2022-09-06T10:51:41.944Z,20.58
2022-09-06T10:54:33.551Z,20.51
2022-09-06T11:00:38.014Z,20.68
2022-09-06T11:06:45.459Z,21.03
2022-09-06T11:09:54.925Z,21.33
2022-09-06T11:13:15.702Z,21.57
2022-09-06T11:16:13.524Z,21.48
2022-09-06T11:19:06.075Z,21.34
2022-09-06T11:22:29.872Z,21.11
2022-09-06T11:25:27.288Z,21.16
2022-09-06T11:28:40.002Z,21.19
2022-09-06T11:34:41.174Z,21.11
2022-09-06T11:37:36.459Z,21.06
2022-09-06T11:40:43.685Z,21.12
2022-09-06T11:43:47.239Z,21.31
2022-09-06T11:46:35.817Z,21.22
2022-09-06T11:49:30.862Z,21.17
2022-09-06T11:52:54.041Z,21.17
2022-09-06T11:55:45.955Z,21.27
2022-09-06T11:58:40.320Z,21.22
2022-09-06T12:01:25.390Z,21.29
2022-09-06T12:04:10.921Z,21.28
2022-09-06T12:07:11.628Z,21.37
2022-09-06T12:09:57.399Z,21.42
2022-09-06T12:12:50.821Z,21.54
2022-09-06T12:15:51.902Z,21.43
2022-09-06T12:18:43.326Z,21.53
2022-09-06T12:21:40.123Z,21.67
2022-09-06T12:24:34.665Z,21.56
2022-09-06T12:27:22.427Z,21.62
2022-09-06T12:30:12.130Z,21.69
2022-09-06T12:33:00.212Z,21.77
2022-09-06T12:36:03.448Z,21.91
2022-09-06T12:39:14.529Z,21.81
2022-09-06T12:42:12.589Z,21.93
2022-09-06T12:45:00.331Z,21.98
2022-09-06T12:47:45.783Z,21.86
2022-09-06T12:50:31.593Z,21.95
2022-09-06T12:53:24.701Z,21.83
2022-09-06T12:56:12.762Z,22.03
2022-09-06T12:59:33.957Z,22.15
2022-09-06T13:02:41.107Z,22.28
2022-09-06T13:05:27.347Z,22.42
2022-09-06T13:08:33.702Z,22.44
2022-09-06T13:11:27.489Z,22.54
2022-09-06T13:14:19.369Z,22.52
2022-09-06T13:17:04.828Z,22.38
2022-09-06T13:19:50.641Z,22.32
2022-09-06T13:22:44.876Z,22.40
2022-09-06T13:25:33.589Z,22.54
2022-09-06T13:28:27.875Z,22.62
2022-09-06T13:31:21.719Z,22.53
2022-09-06T13:34:07.519Z,22.38
2022-09-06T13:37:02.048Z,22.46
2022-09-06T13:39:47.625Z,22.63
2022-09-06T13:42:38.174Z,22.86
2022-09-06T13:45:31.714Z,23.05
2022-09-06T13:48:28.770Z,23.03
2022-09-06T13:51:23.112Z,22.77
2022-09-06T13:54:15.491Z,22.84
2022-09-06T13:57:03.854Z,22.93
2022-09-06T13:59:49.230Z,22.84
2022-09-06T14:02:34.850Z,22.99
2022-09-06T14:05:19.853Z,23.08
2022-09-06T14:08:05.233Z,23.10
2022-09-06T14:10:51.552Z,23.10
2022-09-06T14:13:36.874Z,23.11
2022-09-06T14:16:22.371Z,23.05
2022-09-06T14:19:07.638Z,22.76
2022-09-06T14:21:52.847Z,22.83
2022-09-06T14:24:38.488Z,22.88
2022-09-06T14:27:23.999Z,22.97
2022-09-06T14:30:10.382Z,23.00
2022-09-06T14:32:56.301Z,23.08
2022-09-06T14:35:42.268Z,23.18
2022-09-06T14:38:28.025Z,23.08
2022-09-06T14:41:15.113Z,23.01
2022-09-06T14:44:01.762Z,22.97
2022-09-06T14:46:48.991Z,23.00
2022-09-06T14:49:34.203Z,23.18
2022-09-06T14:52:19.830Z,23.26
2022-09-06T14:55:05.850Z,23.19
2022-09-06T14:57:51.079Z,23.04
2022-09-06T15:00:36.637Z,22.86
2022-09-06T15:03:22.013Z,22.82
2022-09-06T15:06:09.410Z,22.82
2022-09-06T15:08:59.203Z,22.78
2022-09-06T15:11:54.127Z,22.66
2022-09-06T15:14:40.981Z,22.50
2022-09-06T15:17:26.234Z,22.39
2022-09-06T15:20:11.859Z,22.34
2022-09-06T15:23:21.677Z,22.26
2022-09-06T15:26:03.173Z,22.25
2022-09-06T15:28:48.895Z,22.22
2022-09-06T15:31:34.631Z,22.18
2022-09-06T15:34:22.249Z,22.16
2022-09-06T15:37:07.654Z,22.11
2022-09-06T15:39:53.578Z,22.12
2022-09-06T15:42:39.475Z,22.07
2022-09-06T15:45:24.943Z,22.00
2022-09-06T15:48:10.127Z,21.97
2022-09-06T15:50:55.346Z,21.93
2022-09-06T15:53:40.781Z,21.91
2022-09-06T15:56:25.843Z,21.88
2022-09-06T15:59:11.881Z,21.88
2022-09-06T16:01:57.596Z,21.84
2022-09-06T16:04:43.219Z,21.81
2022-09-06T16:07:29.191Z,21.72
2022-09-06T16:10:15.266Z,21.73
2022-09-06T16:13:00.377Z,21.70
2022-09-06T16:15:56.305Z,21.67
2022-09-06T16:18:44.490Z,21.67
2022-09-06T16:21:32.446Z,21.64
2022-09-06T16:24:18.569Z,21.61
2022-09-06T16:27:04.164Z,21.56
2022-09-06T16:29:49.486Z,21.58
2022-09-06T16:32:34.701Z,21.58
2022-09-06T16:35:19.914Z,21.56
2022-09-06T16:38:08.940Z,21.58
2022-09-06T16:40:55.089Z,21.58
2022-09-06T16:43:40.489Z,21.57
2022-09-06T16:46:28.724Z,21.54
2022-09-06T16:49:16.727Z,21.51
2022-09-06T16:52:02.458Z,21.49
2022-09-06T16:54:47.604Z,21.47
2022-09-06T16:57:33.429Z,21.41
2022-09-06T17:00:19.502Z,21.34
2022-09-06T17:03:05.122Z,21.27
2022-09-06T17:05:52.005Z,21.22
2022-09-06T17:08:37.373Z,21.17
2022-09-06T17:11:23.247Z,21.12
2022-09-06T17:14:08.955Z,21.08
2022-09-06T17:17:06.937Z,21.05
2022-09-06T17:19:52.524Z,20.99
2022-09-06T17:22:37.791Z,20.96
2022-09-06T17:25:23.224Z,20.95
2022-09-06T17:28:08.539Z,20.93
2022-09-06T17:30:54.009Z,20.91
2022-09-06T17:33:39.974Z,20.87
2022-09-06T17:36:30.358Z,20.82
2022-09-06T17:39:18.245Z,20.79
2022-09-06T17:42:04.302Z,20.74
2022-09-06T17:44:49.302Z,20.73
2022-09-06T17:47:35.221Z,20.68
2022-09-06T17:50:20.867Z,20.67
2022-09-06T17:53:05.944Z,20.64
2022-09-06T17:55:52.217Z,20.61
2022-09-06T17:58:38.378Z,20.58
2022-09-06T18:01:26.026Z,20.55
2022-09-06T18:04:12.295Z,20.53
2022-09-06T18:06:57.510Z,20.51
2022-09-06T18:09:42.715Z,20.48
2022-09-06T18:12:29.489Z,20.48
2022-09-06T18:15:14.753Z,20.45
2022-09-06T18:18:00.394Z,20.44
2022-09-06T18:20:45.523Z,20.40
2022-09-06T18:23:31.575Z,20.39
2022-09-06T18:26:17.337Z,20.39
2022-09-06T18:29:05.373Z,20.37
2022-09-06T18:31:53.647Z,20.34
2022-09-06T18:34:39.491Z,20.31
2022-09-06T18:37:25.140Z,20.28
2022-09-06T18:40:10.758Z,20.26
2022-09-06T18:42:56.289Z,20.22
2022-09-06T18:45:42.532Z,20.21
2022-09-06T18:48:28.744Z,20.18
2022-09-06T18:51:16.230Z,20.15
2022-09-06T18:54:02.080Z,20.10
2022-09-06T18:56:52.658Z,20.07
2022-09-06T18:59:38.010Z,20.05
2022-09-06T19:02:23.569Z,20.04
2022-09-06T19:05:09.146Z,20.02
2022-09-06T19:07:54.333Z,20.01
2022-09-06T19:10:39.532Z,20.00
2022-09-06T19:13:24.780Z,20.00
2022-09-06T19:16:12.035Z,19.99
2022-09-06T19:19:05.852Z,19.98
2022-09-06T19:21:51.454Z,19.98
2022-09-06T19:24:39.118Z,19.97
2022-09-06T19:27:24.615Z,19.94
2022-09-06T19:30:10.321Z,19.94
2022-09-06T19:32:55.905Z,19.89
2022-09-06T19:36:00.997Z,19.87
2022-09-06T19:39:02.685Z,19.85
2022-09-06T19:41:49.437Z,19.83
2022-09-06T19:44:34.680Z,19.81
2022-09-06T19:47:19.959Z,19.80
2022-09-06T19:50:06.598Z,19.79
2022-09-06T19:52:51.873Z,19.77
2022-09-06T19:55:37.316Z,19.76
2022-09-06T19:58:24.635Z,19.74
2022-09-06T20:01:11.748Z,19.71
2022-09-06T20:03:58.431Z,19.71
2022-09-06T20:06:43.667Z,19.70
2022-09-06T20:09:28.937Z,19.69
2022-09-06T20:12:14.508Z,19.66
2022-09-06T20:14:59.774Z,19.65
2022-09-06T20:17:45.383Z,19.63
2022-09-06T20:20:32.614Z,19.61
2022-09-06T20:23:18.213Z,19.56
2022-09-06T20:26:06.057Z,19.53
2022-09-06T20:28:58.903Z,19.51
2022-09-06T20:31:43.991Z,19.50
2022-09-06T20:34:30.530Z,19.49
2022-09-06T20:37:15.770Z,19.49
2022-09-06T20:40:01.286Z,19.47
2022-09-06T20:42:46.630Z,19.43
2022-09-06T20:45:32.427Z,19.41
2022-09-06T20:48:17.468Z,19.40
2022-09-06T20:51:06.811Z,19.38
2022-09-06T20:53:58.879Z,19.33
2022-09-06T20:56:44.152Z,19.30
2022-09-06T20:59:29.562Z,19.27
2022-09-06T21:02:15.941Z,19.27
2022-09-06T21:05:01.162Z,19.24
2022-09-06T21:07:46.593Z,19.20
2022-09-06T21:10:31.968Z,19.16
2022-09-06T21:13:17.045Z,19.13
2022-09-06T21:16:03.728Z,19.12
2022-09-06T21:18:53.906Z,19.10
2022-09-06T21:21:39.746Z,19.06
2022-09-06T21:24:25.269Z,19.02
2022-09-06T21:27:12.082Z,19.01
2022-09-06T21:29:57.335Z,18.99
2022-09-06T21:32:42.611Z,18.99
2022-09-06T21:35:28.138Z,18.99
2022-09-06T21:38:13.400Z,18.99
2022-09-06T21:40:58.690Z,18.98
2022-09-06T21:43:44.767Z,18.96
2022-09-06T21:46:34.432Z,18.91
2022-09-06T21:49:19.983Z,18.90
2022-09-06T21:52:05.470Z,18.89
2022-09-06T21:54:50.602Z,18.84
2022-09-06T21:57:36.154Z,18.81
2022-09-06T22:00:21.353Z,18.81
2022-09-06T22:03:07.328Z,18.82
2022-09-06T22:05:52.531Z,18.76
2022-09-06T22:08:38.353Z,18.76
2022-09-06T22:11:26.558Z,18.74
2022-09-06T22:14:14.286Z,18.74
2022-09-06T22:16:59.803Z,18.71
2022-09-06T22:19:45.177Z,18.66
2022-09-06T22:22:31.099Z,18.60
2022-09-06T22:25:16.764Z,18.58
2022-09-06T22:28:02.537Z,18.56
2022-09-06T22:30:47.955Z,18.56
2022-09-06T22:33:34.676Z,18.55
2022-09-06T22:36:20.618Z,18.53
2022-09-06T22:39:06.122Z,18.51
2022-09-06T22:41:52.045Z,18.45
2022-09-06T22:44:37.379Z,18.41
2022-09-06T22:47:22.914Z,18.39
2022-09-06T22:50:09.274Z,18.36
2022-09-06T22:52:54.741Z,18.35
2022-09-06T22:55:40.233Z,18.29
2022-09-06T22:58:28.840Z,18.26
2022-09-06T23:01:15.689Z,18.23
2022-09-06T23:04:01.250Z,18.25
2022-09-06T23:06:46.533Z,18.25
2022-09-06T23:09:31.678Z,18.27
2022-09-06T23:12:16.914Z,18.27
2022-09-06T23:15:02.071Z,18.27
2022-09-06T23:17:47.363Z,18.26
2022-09-06T23:20:32.662Z,18.26
2022-09-06T23:23:17.776Z,18.24
2022-09-06T23:26:08.158Z,18.23
2022-09-06T23:29:00.197Z,18.20
2022-09-06T23:31:45.307Z,18.16
2022-09-06T23:34:30.870Z,18.11
2022-09-06T23:37:16.271Z,18.11
2022-09-06T23:40:03.009Z,18.10
2022-09-06T23:42:51.172Z,18.11
2022-09-06T23:45:36.453Z,18.10
2022-09-06T23:48:22.274Z,18.08
2022-09-06T23:51:07.986Z,18.08
2022-09-06T23:53:53.484Z,18.08
2022-09-06T23:56:38.637Z,18.09
2022-09-06T23:59:23.945Z,18.08
